sensor_id;sensor_type;location;lat;lon;timestamp;P1;durP1;ratioP1;P2;durP2;ratioP2
66609;SDS011;53468;48.276;14.416;2024-02-04T00:04:05;9.07;;;4.82;;
66609;SDS011;53468;48.276;14.416;2024-02-04T00:09:07;7.63;;;4.63;;
66609;SDS011;53468;48.276;14.416;2024-02-04T00:14:09;7.85;;;4.22;;
66609;SDS011;53468;48.276;14.416;2024-02-04T00:19:13;6.10;;;3.65;;
66609;SDS011;53468;48.276;14.416;2024-02-04T00:24:15;5.10;;;3.90;;
66609;SDS011;53468;48.276;14.416;2024-02-04T00:29:18;6.53;;;4.35;;
66609;SDS011;53468;48.276;14.416;2024-02-04T00:34:22;7.93;;;5.18;;
66609;SDS011;53468;48.276;14.416;2024-02-04T00:39:24;9.48;;;5.47;;
66609;SDS011;53468;48.276;14.416;2024-02-04T00:44:25;8.27;;;5.32;;
66609;SDS011;53468;48.276;14.416;2024-02-04T00:49:29;8.85;;;5.40;;
66609;SDS011;53468;48.276;14.416;2024-02-04T00:54:31;6.93;;;5.30;;
66609;SDS011;53468;48.276;14.416;2024-02-04T00:59:33;7.65;;;5.57;;
66609;SDS011;53468;48.276;14.416;2024-02-04T01:04:36;8.98;;;6.13;;
66609;SDS011;53468;48.276;14.416;2024-02-04T01:09:38;11.52;;;6.55;;
66609;SDS011;53468;48.276;14.416;2024-02-04T01:14:40;11.30;;;6.80;;
66609;SDS011;53468;48.276;14.416;2024-02-04T01:19:43;12.18;;;7.70;;
66609;SDS011;53468;48.276;14.416;2024-02-04T01:24:45;10.23;;;7.00;;
66609;SDS011;53468;48.276;14.416;2024-02-04T01:29:48;10.32;;;6.88;;
66609;SDS011;53468;48.276;14.416;2024-02-04T01:34:51;9.73;;;7.18;;
66609;SDS011;53468;48.276;14.416;2024-02-04T01:39:53;10.43;;;7.63;;
66609;SDS011;53468;48.276;14.416;2024-02-04T01:44:55;10.35;;;6.88;;
66609;SDS011;53468;48.276;14.416;2024-02-04T01:49:58;10.50;;;7.50;;
66609;SDS011;53468;48.276;14.416;2024-02-04T01:55:01;9.85;;;6.70;;
66609;SDS011;53468;48.276;14.416;2024-02-04T02:00:06;8.95;;;5.63;;
66609;SDS011;53468;48.276;14.416;2024-02-04T02:05:12;10.80;;;6.97;;
66609;SDS011;53468;48.276;14.416;2024-02-04T02:10:14;8.82;;;6.65;;
66609;SDS011;53468;48.276;14.416;2024-02-04T02:15:17;8.60;;;5.97;;
66609;SDS011;53468;48.276;14.416;2024-02-04T02:20:26;9.65;;;6.30;;
66609;SDS011;53468;48.276;14.416;2024-02-04T02:25:33;9.32;;;6.13;;
66609;SDS011;53468;48.276;14.416;2024-02-04T02:30:37;9.18;;;6.72;;
66609;SDS011;53468;48.276;14.416;2024-02-04T02:35:39;8.98;;;6.25;;
66609;SDS011;53468;48.276;14.416;2024-02-04T02:40:44;9.75;;;6.07;;
66609;SDS011;53468;48.276;14.416;2024-02-04T02:45:48;10.82;;;6.50;;
66609;SDS011;53468;48.276;14.416;2024-02-04T02:50:51;10.23;;;7.05;;
66609;SDS011;53468;48.276;14.416;2024-02-04T02:55:54;11.68;;;7.25;;
66609;SDS011;53468;48.276;14.416;2024-02-04T03:00:56;11.15;;;6.95;;
66609;SDS011;53468;48.276;14.416;2024-02-04T03:05:58;9.90;;;6.95;;
66609;SDS011;53468;48.276;14.416;2024-02-04T03:11:01;11.77;;;7.78;;
66609;SDS011;53468;48.276;14.416;2024-02-04T03:16:03;13.90;;;8.35;;
66609;SDS011;53468;48.276;14.416;2024-02-04T03:21:11;13.82;;;8.45;;
66609;SDS011;53468;48.276;14.416;2024-02-04T03:26:17;14.32;;;9.18;;
66609;SDS011;53468;48.276;14.416;2024-02-04T03:31:20;15.95;;;10.50;;
66609;SDS011;53468;48.276;14.416;2024-02-04T03:36:23;18.52;;;10.70;;
66609;SDS011;53468;48.276;14.416;2024-02-04T03:41:27;18.30;;;11.45;;
66609;SDS011;53468;48.276;14.416;2024-02-04T03:46:29;17.35;;;9.88;;
66609;SDS011;53468;48.276;14.416;2024-02-04T03:51:31;12.75;;;7.93;;
66609;SDS011;53468;48.276;14.416;2024-02-04T03:56:34;14.45;;;9.43;;
66609;SDS011;53468;48.276;14.416;2024-02-04T04:01:36;9.85;;;7.68;;
66609;SDS011;53468;48.276;14.416;2024-02-04T04:06:38;10.45;;;6.90;;
66609;SDS011;53468;48.276;14.416;2024-02-04T04:11:41;9.73;;;7.53;;
66609;SDS011;53468;48.276;14.416;2024-02-04T04:16:43;13.15;;;9.10;;
66609;SDS011;53468;48.276;14.416;2024-02-04T04:21:45;15.00;;;9.48;;
66609;SDS011;53468;48.276;14.416;2024-02-04T04:26:49;12.93;;;9.50;;
66609;SDS011;53468;48.276;14.416;2024-02-04T04:31:51;15.95;;;10.23;;
66609;SDS011;53468;48.276;14.416;2024-02-04T04:36:52;14.20;;;9.45;;
66609;SDS011;53468;48.276;14.416;2024-02-04T04:41:56;13.82;;;9.55;;
66609;SDS011;53468;48.276;14.416;2024-02-04T04:46:58;13.48;;;9.50;;
66609;SDS011;53468;48.276;14.416;2024-02-04T04:52:00;16.08;;;9.88;;
66609;SDS011;53468;48.276;14.416;2024-02-04T04:57:03;14.50;;;9.52;;
66609;SDS011;53468;48.276;14.416;2024-02-04T05:02:06;18.17;;;10.27;;
66609;SDS011;53468;48.276;14.416;2024-02-04T05:07:08;19.13;;;12.55;;
66609;SDS011;53468;48.276;14.416;2024-02-04T05:12:11;13.73;;;9.02;;
66609;SDS011;53468;48.276;14.416;2024-02-04T05:17:13;15.82;;;9.70;;
66609;SDS011;53468;48.276;14.416;2024-02-04T05:22:15;13.80;;;8.32;;
66609;SDS011;53468;48.276;14.416;2024-02-04T05:27:18;12.45;;;7.63;;
66609;SDS011;53468;48.276;14.416;2024-02-04T05:32:20;18.42;;;8.52;;
66609;SDS011;53468;48.276;14.416;2024-02-04T05:37:22;11.43;;;6.93;;
66609;SDS011;53468;48.276;14.416;2024-02-04T05:42:25;11.55;;;6.90;;
66609;SDS011;53468;48.276;14.416;2024-02-04T05:47:27;9.32;;;6.25;;
66609;SDS011;53468;48.276;14.416;2024-02-04T05:52:29;10.07;;;6.50;;
66609;SDS011;53468;48.276;14.416;2024-02-04T05:57:32;8.02;;;5.85;;
66609;SDS011;53468;48.276;14.416;2024-02-04T06:02:34;8.57;;;5.68;;
66609;SDS011;53468;48.276;14.416;2024-02-04T06:07:36;6.45;;;4.57;;
66609;SDS011;53468;48.276;14.416;2024-02-04T06:12:40;8.73;;;5.07;;
66609;SDS011;53468;48.276;14.416;2024-02-04T06:17:45;7.93;;;4.20;;
66609;SDS011;53468;48.276;14.416;2024-02-04T06:22:47;6.45;;;4.93;;
66609;SDS011;53468;48.276;14.416;2024-02-04T06:27:50;6.22;;;3.75;;
66609;SDS011;53468;48.276;14.416;2024-02-04T06:32:52;6.90;;;4.22;;
66609;SDS011;53468;48.276;14.416;2024-02-04T06:37:55;5.82;;;3.83;;
66609;SDS011;53468;48.276;14.416;2024-02-04T06:42:58;6.43;;;3.95;;
66609;SDS011;53468;48.276;14.416;2024-02-04T06:48:00;4.68;;;3.15;;
66609;SDS011;53468;48.276;14.416;2024-02-04T06:53:03;5.00;;;3.15;;
66609;SDS011;53468;48.276;14.416;2024-02-04T06:58:06;4.55;;;2.85;;
66609;SDS011;53468;48.276;14.416;2024-02-04T07:03:08;4.93;;;3.50;;
66609;SDS011;53468;48.276;14.416;2024-02-04T07:08:10;5.13;;;3.30;;
66609;SDS011;53468;48.276;14.416;2024-02-04T07:13:13;5.68;;;3.03;;
66609;SDS011;53468;48.276;14.416;2024-02-04T07:18:15;5.25;;;3.70;;
66609;SDS011;53468;48.276;14.416;2024-02-04T07:23:18;4.80;;;3.40;;
66609;SDS011;53468;48.276;14.416;2024-02-04T07:28:21;6.00;;;3.55;;
66609;SDS011;53468;48.276;14.416;2024-02-04T07:33:23;6.07;;;4.22;;
66609;SDS011;53468;48.276;14.416;2024-02-04T07:38:25;4.88;;;3.20;;
66609;SDS011;53468;48.276;14.416;2024-02-04T07:43:28;5.20;;;3.35;;
66609;SDS011;53468;48.276;14.416;2024-02-04T07:48:30;5.05;;;3.03;;
66609;SDS011;53468;48.276;14.416;2024-02-04T07:53:32;5.25;;;3.65;;
66609;SDS011;53468;48.276;14.416;2024-02-04T07:58:35;4.68;;;3.10;;
66609;SDS011;53468;48.276;14.416;2024-02-04T08:03:37;5.20;;;3.00;;
66609;SDS011;53468;48.276;14.416;2024-02-04T08:08:40;5.55;;;3.38;;
66609;SDS011;53468;48.276;14.416;2024-02-04T08:13:43;5.03;;;3.40;;
66609;SDS011;53468;48.276;14.416;2024-02-04T08:18:45;8.27;;;3.13;;
66609;SDS011;53468;48.276;14.416;2024-02-04T08:23:48;4.43;;;3.08;;
66609;SDS011;53468;48.276;14.416;2024-02-04T08:28:51;5.45;;;3.10;;
66609;SDS011;53468;48.276;14.416;2024-02-04T08:33:53;4.65;;;2.85;;
66609;SDS011;53468;48.276;14.416;2024-02-04T08:38:55;5.90;;;3.33;;
66609;SDS011;53468;48.276;14.416;2024-02-04T08:43:58;4.07;;;2.60;;
66609;SDS011;53468;48.276;14.416;2024-02-04T08:49:00;4.18;;;2.92;;
66609;SDS011;53468;48.276;14.416;2024-02-04T08:54:02;4.13;;;2.75;;
66609;SDS011;53468;48.276;14.416;2024-02-04T08:59:05;4.10;;;2.60;;
66609;SDS011;53468;48.276;14.416;2024-02-04T09:04:08;4.50;;;2.45;;
66609;SDS011;53468;48.276;14.416;2024-02-04T09:09:10;4.00;;;2.40;;
66609;SDS011;53468;48.276;14.416;2024-02-04T09:14:13;3.88;;;2.10;;
66609;SDS011;53468;48.276;14.416;2024-02-04T09:19:15;3.58;;;2.45;;
66609;SDS011;53468;48.276;14.416;2024-02-04T09:24:17;4.32;;;2.83;;
66609;SDS011;53468;48.276;14.416;2024-02-04T09:29:21;3.13;;;2.13;;
66609;SDS011;53468;48.276;14.416;2024-02-04T09:34:23;4.28;;;2.47;;
66609;SDS011;53468;48.276;14.416;2024-02-04T09:39:25;2.65;;;1.50;;
66609;SDS011;53468;48.276;14.416;2024-02-04T09:44:28;3.03;;;1.67;;
66609;SDS011;53468;48.276;14.416;2024-02-04T09:49:32;2.67;;;1.85;;
66609;SDS011;53468;48.276;14.416;2024-02-04T09:54:34;3.08;;;1.83;;
66609;SDS011;53468;48.276;14.416;2024-02-04T09:59:45;2.63;;;1.95;;
66609;SDS011;53468;48.276;14.416;2024-02-04T10:04:48;2.55;;;1.73;;
66609;SDS011;53468;48.276;14.416;2024-02-04T10:09:50;3.55;;;1.90;;
66609;SDS011;53468;48.276;14.416;2024-02-04T10:14:53;5.95;;;2.47;;
66609;SDS011;53468;48.276;14.416;2024-02-04T10:19:55;6.35;;;3.10;;
66609;SDS011;53468;48.276;14.416;2024-02-04T10:25:05;3.83;;;1.85;;
66609;SDS011;53468;48.276;14.416;2024-02-04T10:30:10;3.85;;;1.52;;
66609;SDS011;53468;48.276;14.416;2024-02-04T10:35:14;2.35;;;1.55;;
66609;SDS011;53468;48.276;14.416;2024-02-04T10:40:18;4.28;;;1.90;;
66609;SDS011;53468;48.276;14.416;2024-02-04T10:45:22;4.30;;;1.55;;
66609;SDS011;53468;48.276;14.416;2024-02-04T10:50:29;3.15;;;1.70;;
66609;SDS011;53468;48.276;14.416;2024-02-04T10:55:33;3.42;;;1.80;;
66609;SDS011;53468;48.276;14.416;2024-02-04T11:00:44;2.65;;;1.63;;
66609;SDS011;53468;48.276;14.416;2024-02-04T11:05:46;2.08;;;1.20;;
66609;SDS011;53468;48.276;14.416;2024-02-04T11:10:51;6.82;;;2.70;;
66609;SDS011;53468;48.276;14.416;2024-02-04T11:15:55;9.75;;;2.50;;
66609;SDS011;53468;48.276;14.416;2024-02-04T11:21:06;4.00;;;1.88;;
66609;SDS011;53468;48.276;14.416;2024-02-04T11:26:20;6.17;;;2.27;;
66609;SDS011;53468;48.276;14.416;2024-02-04T11:31:27;5.28;;;3.17;;
66609;SDS011;53468;48.276;14.416;2024-02-04T11:36:30;4.68;;;2.45;;
66609;SDS011;53468;48.276;14.416;2024-02-04T11:41:44;2.65;;;1.45;;
66609;SDS011;53468;48.276;14.416;2024-02-04T11:46:49;3.05;;;1.77;;
66609;SDS011;53468;48.276;14.416;2024-02-04T11:51:51;5.53;;;2.00;;
66609;SDS011;53468;48.276;14.416;2024-02-04T11:56:53;3.78;;;1.48;;
66609;SDS011;53468;48.276;14.416;2024-02-04T12:02:04;2.78;;;1.48;;
66609;SDS011;53468;48.276;14.416;2024-02-04T12:07:07;3.13;;;1.70;;
66609;SDS011;53468;48.276;14.416;2024-02-04T12:12:09;2.53;;;1.50;;
66609;SDS011;53468;48.276;14.416;2024-02-04T12:17:13;3.08;;;1.60;;
66609;SDS011;53468;48.276;14.416;2024-02-04T12:22:15;2.47;;;1.25;;
66609;SDS011;53468;48.276;14.416;2024-02-04T12:27:17;3.50;;;1.40;;
66609;SDS011;53468;48.276;14.416;2024-02-04T12:32:21;3.50;;;1.27;;
66609;SDS011;53468;48.276;14.416;2024-02-04T12:37:23;1.50;;;0.88;;
66609;SDS011;53468;48.276;14.416;2024-02-04T12:42:26;1.48;;;0.93;;
66609;SDS011;53468;48.276;14.416;2024-02-04T12:47:30;1.90;;;1.02;;
66609;SDS011;53468;48.276;14.416;2024-02-04T12:52:32;1.77;;;0.85;;
66609;SDS011;53468;48.276;14.416;2024-02-04T12:57:38;3.20;;;1.77;;
66609;SDS011;53468;48.276;14.416;2024-02-04T13:02:42;1.95;;;1.17;;
66609;SDS011;53468;48.276;14.416;2024-02-04T13:07:44;1.75;;;0.90;;
66609;SDS011;53468;48.276;14.416;2024-02-04T13:12:46;2.05;;;1.00;;
66609;SDS011;53468;48.276;14.416;2024-02-04T13:18:00;2.25;;;1.10;;
66609;SDS011;53468;48.276;14.416;2024-02-04T13:23:02;2.53;;;1.00;;
66609;SDS011;53468;48.276;14.416;2024-02-04T13:28:21;1.83;;;0.93;;
66609;SDS011;53468;48.276;14.416;2024-02-04T13:33:24;2.20;;;1.20;;
66609;SDS011;53468;48.276;14.416;2024-02-04T13:38:26;3.10;;;1.05;;
66609;SDS011;53468;48.276;14.416;2024-02-04T13:43:29;2.03;;;0.80;;
66609;SDS011;53468;48.276;14.416;2024-02-04T13:48:31;4.90;;;1.70;;
66609;SDS011;53468;48.276;14.416;2024-02-04T13:53:33;4.38;;;1.40;;
66609;SDS011;53468;48.276;14.416;2024-02-04T13:58:37;2.55;;;1.23;;
66609;SDS011;53468;48.276;14.416;2024-02-04T14:03:39;1.58;;;1.08;;
66609;SDS011;53468;48.276;14.416;2024-02-04T14:08:42;1.17;;;0.70;;
66609;SDS011;53468;48.276;14.416;2024-02-04T14:13:46;2.95;;;1.02;;
66609;SDS011;53468;48.276;14.416;2024-02-04T14:18:48;1.63;;;1.05;;
66609;SDS011;53468;48.276;14.416;2024-02-04T14:23:50;3.22;;;1.20;;
66609;SDS011;53468;48.276;14.416;2024-02-04T14:28:54;1.67;;;0.85;;
66609;SDS011;53468;48.276;14.416;2024-02-04T14:33:56;2.78;;;1.00;;
66609;SDS011;53468;48.276;14.416;2024-02-04T14:38:59;1.52;;;0.90;;
66609;SDS011;53468;48.276;14.416;2024-02-04T14:44:03;2.85;;;1.30;;
66609;SDS011;53468;48.276;14.416;2024-02-04T14:49:05;3.03;;;1.05;;
66609;SDS011;53468;48.276;14.416;2024-02-04T14:54:09;3.20;;;1.30;;
66609;SDS011;53468;48.276;14.416;2024-02-04T14:59:13;2.65;;;1.40;;
66609;SDS011;53468;48.276;14.416;2024-02-04T15:04:15;4.25;;;2.33;;
66609;SDS011;53468;48.276;14.416;2024-02-04T15:09:18;6.10;;;1.23;;
66609;SDS011;53468;48.276;14.416;2024-02-04T15:14:22;3.70;;;1.80;;
66609;SDS011;53468;48.276;14.416;2024-02-04T15:19:25;4.75;;;1.90;;
66609;SDS011;53468;48.276;14.416;2024-02-04T15:24:28;4.18;;;2.08;;
66609;SDS011;53468;48.276;14.416;2024-02-04T15:29:32;4.60;;;2.15;;
66609;SDS011;53468;48.276;14.416;2024-02-04T15:34:36;5.95;;;2.25;;
66609;SDS011;53468;48.276;14.416;2024-02-04T15:39:39;4.32;;;2.35;;
66609;SDS011;53468;48.276;14.416;2024-02-04T15:44:44;6.55;;;2.17;;
66609;SDS011;53468;48.276;14.416;2024-02-04T15:49:46;8.77;;;2.00;;
66609;SDS011;53468;48.276;14.416;2024-02-04T15:54:49;5.57;;;1.90;;
66609;SDS011;53468;48.276;14.416;2024-02-04T15:59:55;5.18;;;2.30;;
66609;SDS011;53468;48.276;14.416;2024-02-04T16:05:01;7.68;;;2.50;;
66609;SDS011;53468;48.276;14.416;2024-02-04T16:10:04;6.50;;;2.60;;
66609;SDS011;53468;48.276;14.416;2024-02-04T16:15:10;7.63;;;2.55;;
66609;SDS011;53468;48.276;14.416;2024-02-04T16:20:14;5.18;;;2.00;;
66609;SDS011;53468;48.276;14.416;2024-02-04T16:25:50;3.58;;;1.90;;
66609;SDS011;53468;48.276;14.416;2024-02-04T16:30:54;4.78;;;2.40;;
66609;SDS011;53468;48.276;14.416;2024-02-04T16:35:56;10.70;;;6.07;;
66609;SDS011;53468;48.276;14.416;2024-02-04T16:40:59;9.38;;;4.03;;
66609;SDS011;53468;48.276;14.416;2024-02-04T16:46:03;6.55;;;3.10;;
66609;SDS011;53468;48.276;14.416;2024-02-04T16:51:05;6.68;;;2.78;;
66609;SDS011;53468;48.276;14.416;2024-02-04T16:56:07;4.25;;;1.75;;
66609;SDS011;53468;48.276;14.416;2024-02-04T17:01:11;3.30;;;1.60;;
66609;SDS011;53468;48.276;14.416;2024-02-04T17:06:13;8.35;;;1.83;;
66609;SDS011;53468;48.276;14.416;2024-02-04T17:11:16;4.53;;;1.92;;
66609;SDS011;53468;48.276;14.416;2024-02-04T17:16:22;3.67;;;1.70;;
66609;SDS011;53468;48.276;14.416;2024-02-04T17:21:35;4.70;;;1.80;;
66609;SDS011;53468;48.276;14.416;2024-02-04T17:26:41;3.03;;;1.83;;
66609;SDS011;53468;48.276;14.416;2024-02-04T17:31:45;4.97;;;1.80;;
66609;SDS011;53468;48.276;14.416;2024-02-04T17:36:47;3.47;;;1.80;;
66609;SDS011;53468;48.276;14.416;2024-02-04T17:41:52;3.22;;;1.50;;
66609;SDS011;53468;48.276;14.416;2024-02-04T17:46:57;4.10;;;1.75;;
66609;SDS011;53468;48.276;14.416;2024-02-04T17:51:59;6.85;;;3.30;;
66609;SDS011;53468;48.276;14.416;2024-02-04T17:57:01;5.50;;;1.80;;
66609;SDS011;53468;48.276;14.416;2024-02-04T18:02:07;4.72;;;1.80;;
66609;SDS011;53468;48.276;14.416;2024-02-04T18:07:09;7.07;;;1.98;;
66609;SDS011;53468;48.276;14.416;2024-02-04T18:12:11;3.42;;;1.65;;
66609;SDS011;53468;48.276;14.416;2024-02-04T18:17:15;7.65;;;1.45;;
66609;SDS011;53468;48.276;14.416;2024-02-04T18:22:18;3.40;;;1.52;;
66609;SDS011;53468;48.276;14.416;2024-02-04T18:27:20;4.18;;;1.30;;
66609;SDS011;53468;48.276;14.416;2024-02-04T18:32:24;3.40;;;1.65;;
66609;SDS011;53468;48.276;14.416;2024-02-04T18:37:26;4.00;;;2.05;;
66609;SDS011;53468;48.276;14.416;2024-02-04T18:42:29;3.60;;;1.58;;
66609;SDS011;53468;48.276;14.416;2024-02-04T18:47:35;3.22;;;1.45;;
66609;SDS011;53468;48.276;14.416;2024-02-04T18:52:37;2.58;;;1.23;;
66609;SDS011;53468;48.276;14.416;2024-02-04T18:57:39;2.28;;;1.10;;
66609;SDS011;53468;48.276;14.416;2024-02-04T19:02:45;1.60;;;0.80;;
66609;SDS011;53468;48.276;14.416;2024-02-04T19:07:47;2.35;;;1.00;;
66609;SDS011;53468;48.276;14.416;2024-02-04T19:12:51;2.33;;;1.00;;
66609;SDS011;53468;48.276;14.416;2024-02-04T19:17:54;3.33;;;1.50;;
66609;SDS011;53468;48.276;14.416;2024-02-04T19:22:56;1.90;;;1.00;;
66609;SDS011;53468;48.276;14.416;2024-02-04T19:27:59;2.28;;;0.88;;
66609;SDS011;53468;48.276;14.416;2024-02-04T19:33:03;2.20;;;0.80;;
66609;SDS011;53468;48.276;14.416;2024-02-04T19:38:06;1.55;;;0.73;;
66609;SDS011;53468;48.276;14.416;2024-02-04T19:43:08;0.85;;;0.45;;
66609;SDS011;53468;48.276;14.416;2024-02-04T19:48:12;1.40;;;0.52;;
66609;SDS011;53468;48.276;14.416;2024-02-04T19:53:15;1.73;;;0.85;;
66609;SDS011;53468;48.276;14.416;2024-02-04T19:58:17;2.95;;;0.85;;
66609;SDS011;53468;48.276;14.416;2024-02-04T20:03:21;3.13;;;0.90;;
66609;SDS011;53468;48.276;14.416;2024-02-04T20:08:23;2.08;;;1.00;;
66609;SDS011;53468;48.276;14.416;2024-02-04T20:13:25;1.08;;;0.60;;
66609;SDS011;53468;48.276;14.416;2024-02-04T20:18:33;4.00;;;0.75;;
66609;SDS011;53468;48.276;14.416;2024-02-04T20:23:36;2.50;;;1.00;;
66609;SDS011;53468;48.276;14.416;2024-02-04T20:28:38;2.60;;;1.20;;
66609;SDS011;53468;48.276;14.416;2024-02-04T20:33:42;2.67;;;1.33;;
66609;SDS011;53468;48.276;14.416;2024-02-04T20:38:44;3.60;;;1.42;;
66609;SDS011;53468;48.276;14.416;2024-02-04T20:43:46;3.67;;;1.20;;
66609;SDS011;53468;48.276;14.416;2024-02-04T20:48:50;1.88;;;0.90;;
66609;SDS011;53468;48.276;14.416;2024-02-04T20:53:52;2.58;;;0.70;;
66609;SDS011;53468;48.276;14.416;2024-02-04T20:58:54;2.03;;;1.00;;
66609;SDS011;53468;48.276;14.416;2024-02-04T21:03:58;3.38;;;1.00;;
66609;SDS011;53468;48.276;14.416;2024-02-04T21:09:00;1.70;;;0.70;;
66609;SDS011;53468;48.276;14.416;2024-02-04T21:14:03;1.65;;;0.60;;
66609;SDS011;53468;48.276;14.416;2024-02-04T21:19:07;2.53;;;0.85;;
66609;SDS011;53468;48.276;14.416;2024-02-04T21:24:09;2.70;;;0.80;;
66609;SDS011;53468;48.276;14.416;2024-02-04T21:29:11;1.38;;;0.80;;
66609;SDS011;53468;48.276;14.416;2024-02-04T21:34:14;2.67;;;0.73;;
66609;SDS011;53468;48.276;14.416;2024-02-04T21:39:16;4.40;;;1.10;;
66609;SDS011;53468;48.276;14.416;2024-02-04T21:44:18;3.67;;;1.02;;
66609;SDS011;53468;48.276;14.416;2024-02-04T21:49:22;3.95;;;1.23;;
66609;SDS011;53468;48.276;14.416;2024-02-04T21:54:24;1.73;;;0.85;;
66609;SDS011;53468;48.276;14.416;2024-02-04T21:59:26;2.08;;;0.68;;
66609;SDS011;53468;48.276;14.416;2024-02-04T22:04:29;3.20;;;1.17;;
66609;SDS011;53468;48.276;14.416;2024-02-04T22:09:31;2.47;;;0.82;;
66609;SDS011;53468;48.276;14.416;2024-02-04T22:14:34;2.50;;;0.80;;
66609;SDS011;53468;48.276;14.416;2024-02-04T22:19:37;1.15;;;0.70;;
66609;SDS011;53468;48.276;14.416;2024-02-04T22:24:45;0.98;;;0.50;;
66609;SDS011;53468;48.276;14.416;2024-02-04T22:29:46;2.03;;;0.80;;
66609;SDS011;53468;48.276;14.416;2024-02-04T22:34:50;1.98;;;0.85;;
66609;SDS011;53468;48.276;14.416;2024-02-04T22:39:52;1.63;;;0.80;;
66609;SDS011;53468;48.276;14.416;2024-02-04T22:44:54;3.95;;;1.05;;
66609;SDS011;53468;48.276;14.416;2024-02-04T22:49:57;4.05;;;1.60;;
66609;SDS011;53468;48.276;14.416;2024-02-04T22:54:59;6.80;;;1.98;;
66609;SDS011;53468;48.276;14.416;2024-02-04T23:00:03;5.25;;;2.38;;
66609;SDS011;53468;48.276;14.416;2024-02-04T23:05:12;2.78;;;1.33;;
66609;SDS011;53468;48.276;14.416;2024-02-04T23:10:14;2.75;;;1.40;;
66609;SDS011;53468;48.276;14.416;2024-02-04T23:15:17;6.22;;;1.88;;
66609;SDS011;53468;48.276;14.416;2024-02-04T23:20:20;8.07;;;1.60;;
66609;SDS011;53468;48.276;14.416;2024-02-04T23:25:22;3.38;;;1.50;;
66609;SDS011;53468;48.276;14.416;2024-02-04T23:30:25;4.70;;;1.40;;
66609;SDS011;53468;48.276;14.416;2024-02-04T23:35:28;3.28;;;1.70;;
66609;SDS011;53468;48.276;14.416;2024-02-04T23:40:30;4.28;;;1.85;;
66609;SDS011;53468;48.276;14.416;2024-02-04T23:45:32;4.80;;;1.60;;
66609;SDS011;53468;48.276;14.416;2024-02-04T23:50:35;9.13;;;1.50;;
66609;SDS011;53468;48.276;14.416;2024-02-04T23:55:37;2.42;;;1.17;;
